Time;durP1;ratioP1;P1;durP2;ratioP2;P2;SDS_P1;SDS_P2;PMS_P1;PMS_P2;Temp;Humidity;BMP_temperature;BMP_pressure;BME280_temperature;BME280_humidity;BME280_pressure;Samples;Min_cycle;Max_cycle;Signal;HPM_P1;HPM_P2
2023/04/21 07:01:24;;;;;;;6.73;4.10;;;13.60;99.90;16.10;101074.00;;;;6302273;22;20708;-70
2023/04/21 07:03:50;;;;;;;3.77;3.43;;;13.40;99.90;17.00;101066.00;;;;6277294;22;20144;-70
2023/04/21 07:06:36;;;;;;;4.07;2.43;;;13.70;99.90;17.20;101055.00;;;;6251829;22;20240;-71
2023/04/21 07:09:04;;;;;;;3.13;2.73;;;14.10;99.90;16.50;101089.00;;;;6254941;22;20166;-71
2023/04/21 07:11:30;;;;;;;2.47;2.37;;;14.10;99.90;16.60;101073.00;;;;6276299;22;20162;-71
2023/04/21 07:14:19;;;;;;;8.87;7.03;;;14.00;99.90;15.30;101050.00;;;;6251065;22;20209;-70
2023/04/21 07:16:48;;;;;;;11.87;7.47;;;14.00;99.90;13.60;101056.00;;;;6251544;22;20163;-70
2023/04/21 07:19:14;;;;;;;3.43;3.13;;;12.70;99.90;14.60;101050.00;;;;6278353;22;20606;-71
2023/04/21 07:21:51;;;;;;;3.43;3.10;;;12.60;99.90;14.30;101033.00;;;;6278060;22;20178;-71
2023/04/21 07:24:45;;;;;;;1.60;1.50;;;12.30;99.90;16.40;101046.00;;;;6277006;22;20178;-71
2023/04/21 07:27:12;;;;;;;4.40;4.07;;;13.20;99.90;15.50;101047.00;;;;6253056;22;20596;-70
2023/04/21 07:29:59;;;;;;;0.97;0.97;;;13.30;99.90;15.80;101053.00;;;;6276486;22;20187;-71
2023/04/21 07:33:05;;;;;;;8.67;5.10;;;13.20;99.90;17.20;101062.00;;;;6251240;22;20172;-71
2023/04/21 07:36:14;;;;;;;3.23;2.40;;;13.50;99.90;16.90;101062.00;;;;6230095;22;20543;-71
2023/04/21 07:38:42;;;;;;;4.57;3.23;;;13.80;99.90;17.20;101067.00;;;;6276530;22;20163;-71
2023/04/21 07:41:10;;;;;;;2.33;2.13;;;14.10;99.90;18.60;101079.00;;;;6276500;22;20159;-70
2023/04/21 07:44:07;;;;;;;5.00;2.83;;;14.80;99.90;18.20;101122.00;;;;6277932;22;20506;-70
2023/04/21 07:47:30;;;;;;;6.90;4.83;;;15.00;99.90;17.30;101138.00;;;;6246895;22;20241;-70
2023/04/21 07:49:56;;;;;;;1.67;1.57;;;14.90;99.90;18.80;101131.00;;;;6189420;23;20146;-71
2023/04/21 07:52:22;;;;;;;2.30;1.65;;;15.40;99.90;19.70;101114.00;;;;6163887;23;20170;-71
2023/04/21 07:54:49;;;;;;;7.77;5.13;;;15.90;99.90;17.40;101153.00;;;;6164169;23;20164;-70
2023/04/21 07:57:15;;;;;;;5.77;4.47;;;15.60;99.90;16.20;101168.00;;;;6189123;23;20159;-70
2023/04/21 08:00:05;;;;;;;1.17;1.07;;;14.50;99.90;16.60;101134.00;;;;6188861;23;20167;-70
2023/04/21 08:03:00;;;;;;;3.83;2.20;;;13.70;99.90;17.70;101144.00;;;;6188393;23;20207;-70
2023/04/21 08:05:26;;;;;;;3.43;3.13;;;14.60;99.90;17.10;101092.00;;;;6250316;22;20163;-70
2023/04/21 08:08:22;;;;;;;7.33;4.07;;;14.50;99.90;16.80;101081.00;;;;6276296;22;20629;-70
2023/04/21 08:11:32;;;;;;;1.57;1.57;;;14.00;99.90;18.90;101145.00;;;;6277488;22;20238;-70
2023/04/21 08:15:13;;;;;;;4.27;3.77;;;14.90;99.90;17.70;101166.00;;;;6276493;22;20619;-70
2023/04/21 08:18:23;;;;;;;3.90;2.17;;;15.50;99.90;18.90;101111.00;;;;6276322;22;20167;-70
2023/04/21 08:20:51;;;;;;;1.50;1.40;;;15.30;99.90;18.10;101161.00;;;;6276088;22;20173;-70
2023/04/21 08:23:23;;;;;;;3.33;3.03;;;14.80;99.90;17.50;101163.00;;;;6277941;22;20165;-70
2023/04/21 08:26:00;;;;;;;1.07;1.00;;;15.00;99.90;19.10;101150.00;;;;6276350;22;20568;-70
2023/04/21 08:28:27;;;;;;;0.70;0.70;;;15.40;99.90;18.30;101169.00;;;;6251106;22;20162;-70
2023/04/21 08:30:53;;;;;;;3.20;2.23;;;15.60;99.90;16.90;101169.00;;;;6277719;22;20495;-70
2023/04/21 08:33:18;;;;;;;3.00;2.17;;;15.20;99.90;18.10;101173.00;;;;6276512;22;20142;-70
2023/04/21 08:35:45;;;;;;;2.53;2.40;;;15.00;99.90;17.20;101164.00;;;;6275939;22;20567;-70
2023/04/21 08:38:11;;;;;;;1.53;1.43;;;15.00;99.90;18.80;101155.00;;;;6250773;22;20240;-70
2023/04/21 08:40:37;;;;;;;4.43;4.00;;;15.40;99.90;17.40;101164.00;;;;6275719;22;20189;-70
2023/04/21 08:43:05;;;;;;;1.33;1.30;;;15.00;99.90;18.40;101157.00;;;;6276346;22;20173;-70
2023/04/21 08:45:32;;;;;;;0.97;0.73;;;15.30;99.90;20.20;101099.00;;;;6276190;22;20147;-70
2023/04/21 08:48:05;;;;;;;1.70;1.60;;;15.90;99.90;20.00;101134.00;;;;6250711;22;20182;-68
2023/04/21 08:50:33;;;;;;;5.27;3.50;;;16.40;99.90;20.20;101129.00;;;;6275752;22;20151;-70
2023/04/21 08:52:59;;;;;;;1.67;1.60;;;16.50;99.90;19.20;101158.00;;;;6277398;22;20172;-70
2023/04/21 08:55:29;;;;;;;5.67;3.47;;;16.20;99.90;19.70;101141.00;;;;6277524;22;20154;-68
2023/04/21 08:57:56;;;;;;;1.67;1.57;;;16.50;99.90;19.90;101085.00;;;;6250543;22;20152;-70
2023/04/21 09:00:22;;;;;;;2.45;1.52;;;16.50;99.90;21.40;101113.00;;;;6279312;22;20155;-68
2023/04/21 09:03:27;;;;;;;2.35;1.95;;;17.10;99.90;21.00;101104.00;;;;6308164;22;20223;-68
2023/04/21 09:06:19;;;;;;;2.65;2.55;;;17.40;99.90;19.60;101135.00;;;;6267590;22;20603;-70
2023/04/21 09:09:41;;;;;;;4.40;1.90;;;16.90;99.90;20.20;101125.00;;;;6240150;22;20588;-70
2023/04/21 09:12:53;;;;;;;2.70;1.55;;;16.90;99.90;18.70;101160.00;;;;6307822;22;20481;-70
2023/04/21 09:15:21;;;;;;;1.67;1.53;;;16.60;99.90;18.70;101152.00;;;;6280779;22;20310;-70
2023/04/21 09:17:47;;;;;;;2.33;1.57;;;15.80;99.90;20.30;101134.00;;;;6280474;22;20142;-70
2023/04/21 09:20:20;;;;;;;5.03;4.53;;;16.40;99.90;20.00;101132.00;;;;6281042;22;20243;-70
2023/04/21 09:22:50;;;;;;;3.50;1.60;;;16.60;99.90;19.70;101128.00;;;;6280898;22;20176;-69
2023/04/21 09:25:18;;;;;;;4.57;2.07;;;16.60;99.90;19.90;101141.00;;;;6281093;22;20135;-70
2023/04/21 09:27:46;;;;;;;3.00;2.33;;;16.60;99.90;20.10;101076.00;;;;6280341;22;20136;-70
2023/04/21 09:30:13;;;;;;;6.00;3.97;;;16.90;99.90;19.50;101147.00;;;;6280952;22;20148;-70
2023/04/21 09:32:40;;;;;;;2.43;2.13;;;16.60;99.90;18.30;101182.00;;;;6280583;22;20141;-70
2023/04/21 09:36:06;;;;;;;0.20;0.20;;;16.00;99.90;19.00;101161.00;;;;6281068;22;20168;-69
2023/04/21 09:38:32;;;;;;;7.30;2.20;;;15.60;99.90;18.90;101162.00;;;;6308186;22;20147;-70
2023/04/21 09:40:59;;;;;;;4.13;2.47;;;15.90;99.90;19.70;101131.00;;;;6307483;22;20161;-70
2023/04/21 09:43:25;;;;;;;2.30;1.20;;;16.30;99.90;19.70;101137.00;;;;6280354;22;20488;-70
2023/04/21 09:45:53;;;;;;;1.97;1.60;;;16.30;99.90;20.90;101114.00;;;;6280865;22;20568;-70
2023/04/21 09:48:24;;;;;;;0.53;0.53;;;17.20;99.90;21.10;101105.00;;;;6280116;22;20172;-69
2023/04/21 09:51:01;;;;;;;0.73;0.65;;;17.50;99.90;21.00;101110.00;;;;6255293;22;20162;-70
2023/04/21 09:53:39;;;;;;;3.08;1.70;;;17.60;99.90;19.90;101125.00;;;;6280561;22;20158;-70
2023/04/21 09:56:24;;;;;;;1.75;1.65;;;17.30;99.90;20.30;101111.00;;;;6308074;22;20183;-70
2023/04/21 09:58:57;;;;;;;3.90;3.30;;;17.40;99.90;18.90;101139.00;;;;6254705;22;20167;-70
2023/04/21 10:01:28;;;;;;;2.00;1.83;;;16.60;99.90;21.20;101093.00;;;;6280164;22;20622;-70
2023/04/21 10:03:54;;;;;;;3.90;2.90;;;17.20;99.90;20.50;101102.00;;;;6253455;22;20857;-70
2023/04/21 10:06:22;;;;;;;0.93;0.73;;;17.60;99.90;19.00;101133.00;;;;6280474;22;20505;-70
2023/04/21 10:08:49;;;;;;;3.83;2.00;;;16.90;99.90;20.60;101106.00;;;;6280648;22;20157;-70
2023/04/21 10:11:17;;;;;;;3.00;1.70;;;16.90;99.90;20.80;101090.00;;;;6280061;22;20564;-70
2023/04/21 10:13:44;;;;;;;0.10;0.10;;;17.20;99.90;20.10;101112.00;;;;6254669;22;20155;-70
2023/04/21 10:16:10;;;;;;;4.63;3.43;;;17.10;99.90;20.20;101087.00;;;;6254481;22;20160;-70
2023/04/21 10:19:24;;;;;;;3.00;1.30;;;17.40;99.90;20.00;101082.00;;;;6280058;22;20570;-70
2023/04/21 10:37:03;;;;;;;7.37;4.03;;;16.60;99.90;17.30;101141.00;;;;5048923;28;20201;-68
2023/04/21 10:39:55;;;;;;;1.93;1.80;;;16.00;99.90;19.10;101112.00;;;;5047085;28;20196;-69
2023/04/21 10:42:32;;;;;;;8.10;5.83;;;16.00;99.90;17.70;101139.00;;;;5039601;28;20283;-69
2023/04/21 10:45:24;;;;;;;1.57;1.17;;;16.10;99.90;20.40;101075.00;;;;5028652;28;20188;-69
2023/04/21 10:47:54;;;;;;;7.43;4.10;;;16.90;99.90;18.70;101089.00;;;;5044080;28;20284;-69
2023/04/21 10:50:24;;;;;;;3.60;1.67;;;16.70;99.90;19.80;101055.00;;;;5038531;28;20181;-68
2023/04/21 10:53:10;;;;;;;3.90;3.23;;;16.60;99.90;20.70;101020.00;;;;5049941;28;20266;-69
2023/04/21 10:55:37;;;;;;;1.77;1.67;;;17.10;99.90;21.80;101009.00;;;;5066810;28;20211;-69
2023/04/21 10:58:07;;;;;;;2.47;1.43;;;17.80;99.90;21.50;101010.00;;;;5033224;28;20178;-69
2023/04/21 11:00:37;;;;;;;1.65;1.50;;;18.20;99.90;21.90;101020.00;;;;5048037;28;20641;-69
2023/04/21 11:03:06;;;;;;;1.00;1.00;;;18.40;99.90;22.60;101036.00;;;;5040046;28;20550;-69
2023/04/21 11:05:46;;;;;;;1.38;1.17;;;19.00;99.90;22.40;101071.00;;;;5048456;28;20240;-69
2023/04/21 11:08:20;;;;;;;4.25;1.52;;;18.70;99.90;21.70;101040.00;;;;5048466;28;20193;-69
2023/04/21 11:10:59;;;;;;;0.68;0.68;;;18.70;99.90;23.30;101042.00;;;;5028331;28;20893;-69
2023/04/21 11:13:32;;;;;;;2.90;2.80;;;19.10;99.90;23.10;101031.00;;;;5047128;28;20193;-68
2023/04/21 11:16:24;;;;;;;0.45;0.45;;;19.40;99.90;21.30;101054.00;;;;5048329;28;20594;-69
2023/04/21 11:18:50;;;;;;;3.70;1.23;;;19.30;99.90;23.20;101010.00;;;;5030129;28;20285;-69
2023/04/21 11:21:20;;;;;;;0.43;0.43;;;19.20;99.90;22.80;101042.00;;;;5048493;28;20182;-69
2023/04/21 11:23:56;;;;;;;1.90;1.40;;;19.30;99.90;23.30;101040.00;;;;5048593;28;20182;-69
2023/04/21 11:26:41;;;;;;;1.88;0.98;;;19.40;99.90;21.50;101021.00;;;;5049502;28;20213;-69
2023/04/21 11:29:10;;;;;;;2.38;1.35;;;18.90;99.90;21.40;101045.00;;;;5048214;28;20179;-69
2023/04/21 11:31:43;;;;;;;1.00;1.00;;;18.80;99.90;20.70;101050.00;;;;5028218;28;20641;-69
2023/04/21 11:34:09;;;;;;;1.85;1.25;;;17.90;99.90;20.80;101048.00;;;;5047693;28;20190;-68
2023/04/21 11:36:45;;;;;;;3.40;1.67;;;18.00;99.90;19.80;101039.00;;;;5049375;28;20663;-68
2023/04/21 11:39:57;;;;;;;4.75;3.80;;;17.70;99.90;21.20;101031.00;;;;5047890;28;20640;-68
2023/04/21 11:42:48;;;;;;;0.47;0.47;;;17.90;99.90;22.00;100967.00;;;;5048180;28;20262;-68
2023/04/21 11:46:13;;;;;;;2.10;1.73;;;18.10;99.90;21.40;101022.00;;;;5015164;28;20203;-69
2023/04/21 11:49:03;;;;;;;3.20;2.65;;;18.20;99.90;21.10;101019.00;;;;5016129;28;20242;-68
2023/04/21 11:52:00;;;;;;;2.38;1.38;;;18.10;99.90;21.00;101014.00;;;;5068103;28;20708;-68
2023/04/21 11:54:53;;;;;;;0.47;0.47;;;17.80;99.90;22.50;101009.00;;;;5022007;28;20194;-68
2023/04/21 11:57:19;;;;;;;0.55;0.43;;;18.30;99.90;22.80;101006.00;;;;5033948;28;20236;-68
2023/04/21 11:59:48;;;;;;;1.27;0.68;;;18.90;99.90;21.70;100994.00;;;;5035388;28;20194;-68
2023/04/21 12:02:34;;;;;;;0.88;0.88;;;18.70;99.90;20.10;101010.00;;;;5035412;28;20657;-68
2023/04/21 12:05:09;;;;;;;0.75;0.70;;;17.90;99.90;21.40;100997.00;;;;5024939;28;21055;-68
2023/04/21 12:07:46;;;;;;;1.27;1.27;;;17.90;99.90;21.40;100996.00;;;;5017641;28;20548;-68
2023/04/21 12:10:16;;;;;;;2.30;1.65;;;17.80;99.90;22.70;100988.00;;;;5030593;28;20243;-69
2023/04/21 12:12:43;;;;;;;2.20;2.00;;;18.60;99.90;23.00;100991.00;;;;5033983;28;20268;-68
2023/04/21 12:15:24;;;;;;;3.50;1.90;;;19.00;99.90;21.70;100970.00;;;;5034468;28;20179;-68
2023/04/21 12:17:54;;;;;;;1.00;0.98;;;18.70;99.90;21.30;100997.00;;;;5035318;28;20182;-68
2023/04/21 12:20:23;;;;;;;2.97;2.60;;;18.30;99.90;21.20;100998.00;;;;5035528;28;20515;-68
2023/04/21 12:22:52;;;;;;;3.55;2.60;;;18.20;99.90;21.70;100985.00;;;;5035095;28;20332;-69
2023/04/21 12:25:18;;;;;;;2.23;2.03;;;18.20;99.90;21.80;100993.00;;;;5033957;28;20190;-68
2023/04/21 12:27:51;;;;;;;3.67;3.03;;;18.20;99.90;21.60;100947.00;;;;5034829;28;20198;-68
2023/04/21 12:30:24;;;;;;;1.07;1.03;;;18.50;99.90;19.70;101015.00;;;;5033890;28;20720;-68
2023/04/21 12:32:50;;;;;;;1.50;1.40;;;17.70;99.90;21.60;100993.00;;;;5033628;28;20697;-68
2023/04/21 12:35:38;;;;;;;4.00;3.60;;;17.90;99.90;21.00;100995.00;;;;5035333;28;20190;-69
2023/04/21 12:38:04;;;;;;;3.50;2.70;;;17.90;99.90;20.60;101005.00;;;;5067085;28;20193;-69
2023/04/21 12:40:31;;;;;;;7.93;4.63;;;18.10;99.90;20.00;101014.00;;;;5016677;28;20197;-69
2023/04/21 12:42:57;;;;;;;1.30;1.23;;;17.70;99.90;21.00;100962.00;;;;5033652;28;20189;-69
2023/04/21 12:45:51;;;;;;;4.97;3.27;;;17.70;99.90;21.40;100991.00;;;;5031783;28;20183;-69
2023/04/21 12:48:21;;;;;;;3.40;2.73;;;18.00;99.90;19.80;101002.00;;;;5034985;28;20209;-69
2023/04/21 12:50:46;;;;;;;2.43;2.23;;;17.90;99.90;19.90;101009.00;;;;5033173;28;20260;-68
2023/04/21 12:53:13;;;;;;;7.83;4.23;;;17.50;99.90;20.70;100978.00;;;;5034844;28;20241;-68
2023/04/21 12:55:39;;;;;;;1.40;0.83;;;17.50;99.90;21.50;100997.00;;;;5033625;28;20248;-69
2023/04/21 12:58:07;;;;;;;0.23;0.20;;;17.90;99.90;21.10;100996.00;;;;5033206;28;20272;-69
2023/04/21 13:00:34;;;;;;;6.85;3.97;;;18.10;99.90;19.10;101013.00;;;;5033212;28;20679;-69
2023/04/21 13:03:01;;;;;;;3.63;3.33;;;17.60;99.90;19.00;100998.00;;;;5027640;28;20198;-69
2023/04/21 13:05:28;;;;;;;5.07;3.37;;;16.90;99.90;20.20;101008.00;;;;5032969;28;20201;-68
2023/04/21 13:07:54;;;;;;;0.67;0.63;;;17.30;99.90;20.80;100997.00;;;;5034176;28;20262;-68
2023/04/21 13:10:20;;;;;;;2.20;1.27;;;17.50;99.90;21.00;100994.00;;;;5032928;28;20220;-68
2023/04/21 13:12:46;;;;;;;2.13;1.97;;;17.60;99.90;20.60;100987.00;;;;5032767;28;20216;-69
2023/04/21 13:15:12;;;;;;;0.97;0.97;;;17.60;99.90;21.80;100985.00;;;;5016500;28;20189;-68
2023/04/21 13:17:40;;;;;;;4.75;2.25;;;17.80;99.90;21.00;100984.00;;;;5016334;28;20573;-68
2023/04/21 13:20:06;;;;;;;1.63;1.40;;;17.80;99.90;21.50;100974.00;;;;5033222;28;20194;-68
2023/04/21 13:22:35;;;;;;;3.13;1.38;;;17.90;99.90;20.90;100974.00;;;;5032897;28;20204;-68
2023/04/21 13:25:03;;;;;;;0.47;0.47;;;17.90;99.90;21.50;100976.00;;;;5032820;28;20229;-68
2023/04/21 13:27:29;;;;;;;2.17;1.97;;;17.90;99.90;21.00;100968.00;;;;5032712;28;20185;-69
2023/04/21 13:29:56;;;;;;;4.33;1.10;;;18.00;99.90;20.90;100955.00;;;;5033903;28;20647;-68
2023/04/21 13:32:25;;;;;;;2.17;1.83;;;17.90;99.90;19.40;100961.00;;;;5032108;28;20685;-68
2023/04/21 13:35:17;;;;;;;2.30;2.00;;;17.60;99.90;20.50;100953.00;;;;5032719;28;20229;-69
2023/04/21 13:37:44;;;;;;;2.47;2.27;;;17.80;99.90;20.70;100932.00;;;;5033599;28;20198;-68
2023/04/21 13:40:10;;;;;;;0.53;0.47;;;17.70;99.90;21.50;100938.00;;;;5031940;28;20244;-68
2023/04/21 13:42:54;;;;;;;0.60;0.60;;;17.90;99.90;21.40;100880.00;;;;5030695;28;20553;-69
2023/04/21 13:45:20;;;;;;;6.00;3.90;;;18.10;99.90;20.90;100924.00;;;;5033634;28;20558;-68
2023/04/21 13:47:48;;;;;;;1.37;0.93;;;17.90;99.90;22.20;100917.00;;;;5033528;28;20190;-69
2023/04/21 13:50:15;;;;;;;1.97;1.30;;;18.30;99.90;21.10;100918.00;;;;5033701;28;20190;-69
2023/04/21 13:52:41;;;;;;;1.10;0.83;;;18.30;99.90;20.70;100919.00;;;;5033546;28;20197;-68
2023/04/21 13:55:30;;;;;;;1.43;1.33;;;17.80;99.90;21.80;100899.00;;;;5031827;28;20589;-68
2023/04/21 13:57:58;;;;;;;0.67;0.67;;;17.90;99.90;21.20;100892.00;;;;5023289;28;20189;-68
2023/04/21 14:00:24;;;;;;;3.33;2.33;;;17.90;99.90;22.00;100878.00;;;;5032466;28;20581;-69
2023/04/21 14:02:50;;;;;;;0.40;0.40;;;18.20;99.90;22.40;100878.00;;;;5024039;28;20198;-69
2023/04/21 14:05:19;;;;;;;8.73;2.03;;;18.40;99.90;20.00;100891.00;;;;5031932;28;20189;-69
2023/04/21 14:07:53;;;;;;;2.73;1.83;;;17.70;99.90;21.00;100883.00;;;;5031872;28;20189;-68
2023/04/21 14:10:19;;;;;;;1.08;0.75;;;17.50;99.90;21.90;100862.00;;;;5017591;28;20189;-69
2023/04/21 14:12:51;;;;;;;0.50;0.33;;;17.90;99.90;21.00;100877.00;;;;5033152;28;20725;-69
2023/04/21 14:15:22;;;;;;;2.67;2.20;;;17.90;99.90;19.80;100874.00;;;;5033152;28;20192;-68
2023/04/21 14:17:51;;;;;;;1.53;1.20;;;17.70;99.90;19.80;100868.00;;;;5031765;28;20197;-68
2023/04/21 14:20:20;;;;;;;1.37;1.37;;;17.30;99.90;19.80;100874.00;;;;5032923;28;20531;-68
2023/04/21 14:22:46;;;;;;;0.10;0.10;;;17.20;99.90;21.00;100861.00;;;;5031550;28;20190;-68
2023/04/21 14:25:44;;;;;;;1.43;1.37;;;17.50;99.90;19.30;100892.00;;;;5031989;28;20546;-68
2023/04/21 14:28:31;;;;;;;6.73;1.73;;;17.40;99.90;21.00;100870.00;;;;5010683;28;20191;-69
2023/04/21 14:31:33;;;;;;;2.10;1.27;;;17.60;99.90;21.20;100863.00;;;;5046263;28;20193;-70
2023/04/21 14:34:37;;;;;;;2.23;1.67;;;17.90;99.90;21.10;100858.00;;;;5062158;28;20198;-69
2023/04/21 14:37:46;;;;;;;0.10;0.10;;;18.20;99.90;22.40;100844.00;;;;5031482;28;20188;-69
2023/04/21 14:40:34;;;;;;;0.17;0.17;;;18.20;99.90;22.20;100843.00;;;;5015657;28;20194;-69
2023/04/21 14:43:26;;;;;;;0.40;0.40;;;18.70;99.90;22.70;100833.00;;;;5014885;28;20182;-69
2023/04/21 14:46:15;;;;;;;1.77;1.03;;;18.80;99.90;20.50;100833.00;;;;5023258;28;20300;-69
2023/04/21 14:48:52;;;;;;;0.33;0.33;;;18.70;99.90;21.80;100809.00;;;;5013247;28;20198;-68
2023/04/21 14:51:27;;;;;;;0.75;0.40;;;18.40;99.90;22.10;100796.00;;;;5014826;28;20210;-68
2023/04/21 14:53:53;;;;;;;0.30;0.30;;;18.30;99.90;23.00;100810.00;;;;5015031;28;20189;-69
2023/04/21 14:56:26;;;;;;;4.13;3.00;;;18.70;99.90;19.80;100822.00;;;;5032839;28;20203;-69
2023/04/21 14:59:15;;;;;;;1.55;1.45;;;18.30;99.90;21.60;100799.00;;;;5019510;28;20193;-69
2023/04/21 15:01:44;;;;;;;3.73;1.03;;;18.20;99.90;20.50;100759.00;;;;5025881;28;20183;-69
2023/04/21 15:04:10;;;;;;;6.30;2.13;;;18.20;99.90;20.70;100802.00;;;;5031047;28;20194;-68
2023/04/21 15:06:36;;;;;;;0.40;0.40;;;18.10;99.90;21.20;100786.00;;;;5014713;28;20209;-69
2023/04/21 15:09:03;;;;;;;1.07;0.97;;;18.00;99.90;22.30;100781.00;;;;5031318;28;20212;-69
2023/04/21 15:11:29;;;;;;;0.27;0.27;;;18.30;99.90;21.70;100787.00;;;;5031595;28;20232;-69
2023/04/21 15:13:55;;;;;;;0.30;0.30;;;18.40;99.90;20.50;100761.00;;;;5031148;28;20598;-68
2023/04/21 15:16:21;;;;;;;1.73;1.63;;;18.10;99.90;21.20;100779.00;;;;5031234;28;20205;-69
2023/04/21 15:18:47;;;;;;;2.83;1.33;;;18.10;99.90;21.50;100771.00;;;;5012892;28;20203;-69
2023/04/21 15:21:57;;;;;;;3.35;1.27;;;18.20;99.90;19.80;100788.00;;;;5034289;28;20186;-69
2023/04/21 15:24:23;;;;;;;1.73;1.57;;;17.90;99.90;19.90;100766.00;;;;5011863;28;20185;-68
2023/04/21 15:26:56;;;;;;;1.30;0.63;;;17.60;99.90;21.20;100749.00;;;;5034748;28;20651;-69
2023/04/21 15:29:22;;;;;;;0.60;0.60;;;17.80;99.90;21.60;100762.00;;;;5036221;28;20264;-69
2023/04/21 15:31:56;;;;;;;1.23;0.83;;;18.10;99.90;20.80;100754.00;;;;5034567;28;20312;-69
2023/04/21 15:34:23;;;;;;;1.40;1.25;;;18.00;99.90;21.70;100735.00;;;;5036168;28;20198;-69
2023/04/21 15:37:04;;;;;;;1.85;1.75;;;18.10;99.90;20.60;100749.00;;;;5034770;28;20683;-68
2023/04/21 15:39:30;;;;;;;2.80;2.40;;;17.70;99.90;22.20;100741.00;;;;5034421;28;20743;-69
2023/04/21 15:41:57;;;;;;;0.50;0.33;;;18.10;99.90;21.90;100692.00;;;;5036123;28;20281;-69
2023/04/21 15:44:24;;;;;;;2.10;1.30;;;18.30;99.90;21.70;100736.00;;;;5034679;28;20194;-69
2023/04/21 15:46:50;;;;;;;2.72;1.48;;;18.40;99.90;21.60;100737.00;;;;5034843;28;20193;-69
2023/04/21 15:49:16;;;;;;;1.60;1.13;;;18.30;99.90;20.90;100734.00;;;;5034357;28;20210;-69
2023/04/21 15:52:03;;;;;;;0.75;0.75;;;18.20;99.90;21.10;100727.00;;;;5034474;28;20289;-69
2023/04/21 15:54:44;;;;;;;1.43;1.33;;;18.20;99.90;21.60;100711.00;;;;5024121;28;20248;-69
2023/04/21 15:57:13;;;;;;;1.53;1.30;;;18.10;99.90;21.40;100707.00;;;;5034508;28;20273;-69
2023/04/21 15:59:40;;;;;;;1.60;0.80;;;18.10;99.90;21.50;100705.00;;;;5035199;28;20286;-69
2023/04/21 16:02:06;;;;;;;1.00;0.83;;;18.20;99.90;20.70;100702.00;;;;5035363;28;20704;-69
2023/04/21 16:04:32;;;;;;;2.73;1.67;;;18.00;99.90;20.50;100691.00;;;;5033942;28;20647;-69
2023/04/21 16:07:05;;;;;;;0.93;0.93;;;17.80;99.90;20.70;100645.00;;;;5035099;28;20194;-69
2023/04/21 16:09:35;;;;;;;1.70;1.17;;;17.80;99.90;20.60;100643.00;;;;5034542;28;20187;-69
2023/04/21 16:12:08;;;;;;;0.70;0.70;;;17.90;99.90;20.50;100677.00;;;;5034223;28;20210;-69
2023/04/21 16:15:03;;;;;;;2.83;1.57;;;17.70;99.90;21.40;100669.00;;;;5061949;28;20190;-69
2023/04/21 16:18:05;;;;;;;3.67;3.17;;;18.00;99.90;20.80;100674.00;;;;5061926;28;20199;-69
2023/04/21 16:21:00;;;;;;;1.00;1.00;;;17.80;99.90;21.40;100666.00;;;;5033673;28;20189;-69
2023/04/21 16:23:49;;;;;;;1.53;1.40;;;17.80;99.90;21.20;100655.00;;;;5064249;28;20221;-69
2023/04/21 16:26:36;;;;;;;0.40;0.37;;;17.80;99.90;21.50;100652.00;;;;5033799;28;20204;-69
2023/04/21 16:29:27;;;;;;;3.50;1.73;;;17.80;99.90;20.90;100654.00;;;;5034779;28;20243;-69
2023/04/21 16:32:22;;;;;;;1.77;1.67;;;17.80;99.90;20.60;100632.00;;;;5016937;28;20221;-69
2023/04/21 16:35:11;;;;;;;0.70;0.70;;;17.70;99.90;20.50;100661.00;;;;5027856;28;20669;-69
2023/04/21 16:37:41;;;;;;;0.70;0.70;;;17.80;99.90;21.00;100663.00;;;;5031549;28;20190;-69
2023/04/21 16:40:10;;;;;;;3.40;1.93;;;17.60;99.90;21.50;100642.00;;;;5033814;28;20217;-69
2023/04/21 16:42:37;;;;;;;0.43;0.43;;;17.80;99.90;20.90;100654.00;;;;5015126;28;20198;-69
2023/04/21 16:45:04;;;;;;;3.40;2.07;;;17.80;99.90;21.00;100666.00;;;;5034969;28;20228;-69
2023/04/21 16:47:34;;;;;;;1.30;1.20;;;17.80;99.90;21.40;100667.00;;;;5033115;28;20218;-69
2023/04/21 16:50:01;;;;;;;1.40;1.30;;;17.80;99.90;20.30;100669.00;;;;5033206;28;20185;-69
2023/04/21 16:52:29;;;;;;;2.35;2.25;;;17.70;99.90;20.90;100657.00;;;;5033121;28;20202;-69
2023/04/21 16:55:06;;;;;;;0.70;0.55;;;17.70;99.90;21.90;100646.00;;;;5033424;28;20277;-70
2023/04/21 16:57:37;;;;;;;0.50;0.50;;;17.90;99.90;22.30;100643.00;;;;5017016;28;20258;-69
2023/04/21 17:00:05;;;;;;;1.73;1.57;;;18.40;99.90;22.50;100599.00;;;;5025872;28;20224;-69
2023/04/21 17:02:35;;;;;;;3.30;2.73;;;18.70;99.90;20.70;100603.00;;;;5033845;28;20626;-69
2023/04/21 17:05:18;;;;;;;0.40;0.40;;;18.30;99.90;22.00;100639.00;;;;5016359;28;20190;-69
2023/04/21 17:07:46;;;;;;;3.10;2.53;;;18.20;99.90;20.50;100665.00;;;;5032899;28;20208;-69
2023/04/21 17:10:23;;;;;;;2.87;2.30;;;18.00;99.90;20.20;100634.00;;;;5018063;28;20185;-68
2023/04/21 17:12:51;;;;;;;5.67;3.73;;;17.60;99.90;19.10;100734.00;;;;5022613;28;20204;-69
2023/04/21 17:15:25;;;;;;;6.30;4.87;;;17.10;99.90;14.70;100788.00;;;;5032835;28;20186;-68
2023/04/21 17:18:14;;;;;;;4.73;4.43;;;14.10;99.90;14.40;100632.00;;;;5032828;28;20178;-68
2023/04/21 17:21:29;;;;;;;4.80;4.60;;;12.30;99.90;14.80;100571.00;;;;5024390;28;20203;-69
2023/04/21 17:24:12;;;;;;;6.47;6.10;;;12.10;99.90;14.10;100508.00;;;;5029880;28;20191;-69
2023/04/21 17:26:48;;;;;;;5.57;5.37;;;11.90;99.90;15.10;100577.00;;;;5030057;28;20181;-70
2023/04/21 17:29:16;;;;;;;5.77;5.57;;;12.10;99.90;15.30;100572.00;;;;5033829;28;20718;-70
2023/04/21 17:31:58;;;;;;;6.63;6.23;;;12.30;99.90;14.30;100629.00;;;;5033165;28;20284;-70
2023/04/21 17:34:34;;;;;;;3.57;3.37;;;12.20;99.90;12.60;100630.00;;;;5033581;28;20274;-69
2023/04/21 17:37:53;;;;;;;6.37;5.87;;;11.50;99.90;12.10;100633.00;;;;5032839;28;20675;-69
2023/04/21 17:40:40;;;;;;;6.50;5.90;;;11.00;99.90;12.30;100623.00;;;;5032847;28;20193;-69
2023/04/21 17:43:06;;;;;;;5.17;4.80;;;10.80;99.90;12.00;100627.00;;;;5033229;28;20371;-68
2023/04/21 17:45:41;;;;;;;10.63;9.60;;;10.60;99.90;12.20;100611.00;;;;5033244;28;20653;-68
2023/04/21 17:48:33;;;;;;;12.60;10.03;;;10.70;99.90;11.70;100612.00;;;;5023157;28;20254;-68
2023/04/21 17:51:40;;;;;;;11.73;8.07;;;10.50;99.90;12.30;100614.00;;;;5043601;28;20640;-68
2023/04/21 17:54:33;;;;;;;9.87;5.20;;;10.50;99.90;12.50;100607.00;;;;5045796;28;20181;-68
2023/04/21 17:57:40;;;;;;;5.87;5.07;;;10.60;99.90;12.90;100606.00;;;;5043855;28;20693;-68
2023/04/21 18:00:33;;;;;;;4.80;4.60;;;10.70;99.90;13.30;100587.00;;;;5015536;28;20646;-68
2023/04/21 18:03:23;;;;;;;3.90;3.80;;;10.70;99.90;14.30;100593.00;;;;5031899;28;20191;-68
2023/04/21 18:06:10;;;;;;;6.20;5.00;;;11.10;99.90;14.20;100605.00;;;;5012690;28;20194;-67
2023/04/21 18:09:53;;;;;;;3.70;3.60;;;11.20;99.90;14.40;100617.00;;;;5060231;28;20190;-68
2023/04/21 18:12:46;;;;;;;3.97;3.87;;;11.30;99.90;14.20;100608.00;;;;5021025;28;20573;-67
2023/04/21 18:15:26;;;;;;;6.83;6.27;;;11.30;99.90;13.40;100613.00;;;;5007274;28;20202;-67
2023/04/21 18:18:29;;;;;;;7.03;6.30;;;11.00;99.90;13.50;100616.00;;;;5062705;28;20705;-67
2023/04/21 18:21:24;;;;;;;3.30;3.20;;;10.90;99.90;14.20;100598.00;;;;5026324;28;20272;-67
2023/04/21 18:24:14;;;;;;;5.03;4.93;;;10.90;99.90;14.60;100605.00;;;;5015469;28;20197;-67
2023/04/21 18:27:00;;;;;;;4.50;4.40;;;11.30;99.90;14.70;100604.00;;;;5023494;28;20216;-68
2023/04/21 18:29:27;;;;;;;4.53;4.43;;;11.40;99.90;15.00;100605.00;;;;5031503;28;20197;-68
2023/04/21 18:32:05;;;;;;;4.07;3.97;;;11.60;99.90;14.90;100597.00;;;;5031617;28;20246;-67
2023/04/21 18:34:54;;;;;;;4.43;4.33;;;11.50;99.90;15.20;100589.00;;;;5006788;28;20187;-67
2023/04/21 18:37:43;;;;;;;4.63;4.53;;;11.50;99.90;15.30;100595.00;;;;5013433;28;20675;-68
2023/04/21 18:40:45;;;;;;;5.00;4.80;;;11.70;99.90;14.80;100594.00;;;;5031573;28;20183;-68
2023/04/21 18:43:18;;;;;;;6.60;6.30;;;11.60;99.90;15.30;100603.00;;;;5031339;28;20222;-68
2023/04/21 18:45:44;;;;;;;7.30;6.80;;;11.60;99.90;14.60;100609.00;;;;5019761;28;20179;-68
2023/04/21 18:48:34;;;;;;;6.53;6.13;;;11.50;99.90;14.00;100599.00;;;;5015173;28;20184;-68